createdAt,value
2018-07-31T00:02:10.242Z,7.43
2018-07-31T00:04:39.108Z,7.13
2018-07-31T00:07:07.927Z,7.80
2018-07-31T00:09:36.747Z,8.20
2018-07-31T00:12:05.597Z,7.10
2018-07-31T00:14:34.398Z,7.67
2018-07-31T00:17:03.258Z,7.47
2018-07-31T00:19:32.073Z,7.60
2018-07-31T00:22:01.296Z,8.17
2018-07-31T00:24:30.196Z,8.20
2018-07-31T00:26:59.026Z,7.93
2018-07-31T00:29:27.799Z,7.90
2018-07-31T00:31:56.585Z,8.37
2018-07-31T00:34:25.417Z,7.67
2018-07-31T00:36:54.403Z,7.83
2018-07-31T00:39:23.190Z,7.77
2018-07-31T00:41:51.956Z,8.17
2018-07-31T00:44:20.766Z,7.27
2018-07-31T00:46:49.581Z,8.13
2018-07-31T00:49:18.436Z,7.67
2018-07-31T00:51:47.383Z,6.97
2018-07-31T00:54:16.270Z,8.07
2018-07-31T00:56:45.151Z,7.50
2018-07-31T00:59:13.969Z,7.77
2018-07-31T01:01:42.812Z,6.80
2018-07-31T01:04:11.559Z,7.67
2018-07-31T01:06:42.318Z,7.70
2018-07-31T01:09:12.509Z,6.90
2018-07-31T01:11:41.422Z,6.50
2018-07-31T01:14:10.842Z,6.60
2018-07-31T01:16:41.271Z,6.77
2018-07-31T01:19:11.093Z,7.23
2018-07-31T01:21:40.383Z,7.23
2018-07-31T01:24:09.820Z,8.17
2018-07-31T01:26:38.576Z,7.67
2018-07-31T01:29:07.386Z,7.23
2018-07-31T01:31:36.562Z,7.90
2018-07-31T01:34:05.475Z,7.07
2018-07-31T01:36:34.279Z,6.53
2018-07-31T01:39:03.095Z,6.37
2018-07-31T01:41:31.944Z,6.70
2018-07-31T01:44:00.705Z,6.80
2018-07-31T01:46:29.611Z,6.80
2018-07-31T01:48:58.377Z,6.30
2018-07-31T01:51:27.198Z,6.57
2018-07-31T01:53:55.965Z,6.87
2018-07-31T01:56:24.793Z,6.70
2018-07-31T01:58:53.527Z,6.63
2018-07-31T02:01:22.317Z,6.73
2018-07-31T02:03:51.228Z,6.83
2018-07-31T02:06:24.340Z,6.43
2018-07-31T02:08:53.777Z,6.97
2018-07-31T02:11:22.593Z,6.30
2018-07-31T02:13:51.933Z,7.20
2018-07-31T02:16:20.724Z,6.73
2018-07-31T02:18:49.637Z,6.80
2018-07-31T02:21:18.466Z,6.63
2018-07-31T02:23:47.249Z,6.70
2018-07-31T02:26:16.070Z,6.60
2018-07-31T02:28:44.897Z,7.20
2018-07-31T02:31:14.212Z,7.40
2018-07-31T02:33:43.020Z,6.87
2018-07-31T02:36:12.638Z,7.13
2018-07-31T02:38:41.475Z,7.33
2018-07-31T02:41:10.354Z,7.27
2018-07-31T02:43:39.146Z,7.47
2018-07-31T02:46:08.031Z,7.37
2018-07-31T02:48:36.938Z,7.70
2018-07-31T02:51:05.761Z,8.03
2018-07-31T02:53:34.593Z,7.50
2018-07-31T02:56:03.345Z,8.67
2018-07-31T02:58:33.726Z,7.67
2018-07-31T03:01:02.628Z,8.30
2018-07-31T03:03:31.526Z,7.87
2018-07-31T03:06:00.423Z,7.90
2018-07-31T03:08:29.200Z,8.97
2018-07-31T03:10:57.963Z,9.00
2018-07-31T03:13:26.866Z,8.87
2018-07-31T03:15:55.620Z,8.27
2018-07-31T03:18:24.484Z,9.10
2018-07-31T03:20:53.445Z,10.43
2018-07-31T03:23:22.247Z,9.10
2018-07-31T03:25:51.027Z,9.77
2018-07-31T03:28:19.844Z,9.63
2018-07-31T03:30:48.823Z,9.87
2018-07-31T03:33:17.610Z,10.03
2018-07-31T03:35:46.422Z,9.97
2018-07-31T03:38:20.612Z,9.93
2018-07-31T03:41:00.660Z,9.57
2018-07-31T03:43:33.313Z,9.33
2018-07-31T03:46:02.113Z,10.17
2018-07-31T03:48:30.912Z,9.37
2018-07-31T03:50:59.786Z,9.37
2018-07-31T03:53:28.581Z,8.90
2018-07-31T03:55:57.406Z,8.93
2018-07-31T03:58:26.305Z,10.10
2018-07-31T04:00:55.181Z,9.47
2018-07-31T04:03:23.999Z,9.80
2018-07-31T04:05:52.793Z,9.97
2018-07-31T04:08:21.745Z,9.53
2018-07-31T04:10:50.721Z,10.73
2018-07-31T04:13:19.481Z,9.50
2018-07-31T04:15:48.643Z,9.20
2018-07-31T04:18:17.413Z,8.80
2018-07-31T04:20:46.291Z,8.93
2018-07-31T04:23:15.134Z,9.37
2018-07-31T04:25:43.951Z,9.43
2018-07-31T04:28:12.743Z,9.50
2018-07-31T04:30:41.509Z,9.27
2018-07-31T04:33:10.279Z,8.67
2018-07-31T04:35:39.189Z,8.70
2018-07-31T04:38:08.038Z,8.37
2018-07-31T04:40:36.789Z,8.57
2018-07-31T04:43:05.937Z,8.27
2018-07-31T04:45:35.062Z,9.13
2018-07-31T04:48:03.857Z,8.77
2018-07-31T04:50:32.665Z,8.60
2018-07-31T04:53:01.483Z,9.00
2018-07-31T04:55:30.316Z,9.37
2018-07-31T04:57:59.209Z,9.40
2018-07-31T05:00:28.050Z,8.00
2018-07-31T05:02:56.903Z,8.50
2018-07-31T05:05:25.665Z,9.47
2018-07-31T05:07:54.510Z,8.87
2018-07-31T05:10:23.318Z,8.53
2018-07-31T05:12:52.148Z,9.30
2018-07-31T05:15:20.949Z,9.83
2018-07-31T05:17:49.843Z,8.83
2018-07-31T05:20:19.205Z,8.77
2018-07-31T05:22:48.090Z,9.43
2018-07-31T05:25:17.069Z,9.23
2018-07-31T05:27:46.239Z,10.07
2018-07-31T05:30:15.170Z,9.53
2018-07-31T05:32:44.040Z,9.97
2018-07-31T05:35:13.010Z,9.93
2018-07-31T05:37:41.819Z,10.30
2018-07-31T05:40:11.022Z,10.10
2018-07-31T05:42:39.893Z,10.57
2018-07-31T05:45:08.857Z,11.53
2018-07-31T05:47:37.974Z,11.90
2018-07-31T05:50:07.876Z,11.70
2018-07-31T05:52:37.180Z,11.50
2018-07-31T05:55:06.439Z,12.43
2018-07-31T05:57:35.915Z,12.90
2018-07-31T06:00:06.954Z,12.30
2018-07-31T06:02:35.771Z,11.27
2018-07-31T06:05:05.010Z,12.00
2018-07-31T06:07:33.814Z,13.63
2018-07-31T06:10:02.660Z,14.80
2018-07-31T06:12:31.598Z,13.53
2018-07-31T06:15:00.361Z,11.03
2018-07-31T06:17:29.194Z,13.47
2018-07-31T06:19:58.233Z,11.80
2018-07-31T06:22:27.219Z,11.27
2018-07-31T06:24:56.417Z,11.40
2018-07-31T06:27:25.323Z,12.33
2018-07-31T06:29:54.193Z,10.87
2018-07-31T06:32:24.089Z,10.53
2018-07-31T06:34:52.840Z,10.50
2018-07-31T06:37:21.650Z,11.00
2018-07-31T06:39:50.491Z,10.53
2018-07-31T06:42:19.321Z,10.77
2018-07-31T06:44:48.093Z,9.37
2018-07-31T06:47:16.915Z,10.60
2018-07-31T06:49:45.882Z,11.97
2018-07-31T06:52:14.694Z,11.27
2018-07-31T06:54:43.682Z,11.07
2018-07-31T06:57:12.493Z,10.43
2018-07-31T06:59:41.361Z,10.20
2018-07-31T07:02:10.423Z,9.47
2018-07-31T07:04:39.464Z,10.30
2018-07-31T07:07:08.421Z,9.30
2018-07-31T07:09:37.351Z,14.53
2018-07-31T07:12:06.222Z,9.27
2018-07-31T07:14:35.070Z,9.63
2018-07-31T07:17:03.821Z,9.47
2018-07-31T07:19:32.581Z,9.20
2018-07-31T07:22:01.413Z,8.53
2018-07-31T07:24:30.230Z,11.00
2018-07-31T07:26:59.057Z,8.47
2018-07-31T07:29:27.924Z,14.40
2018-07-31T07:31:56.739Z,8.83
2018-07-31T07:34:25.666Z,7.47
2018-07-31T07:36:54.509Z,10.07
2018-07-31T07:39:23.771Z,7.43
2018-07-31T07:41:55.686Z,9.23
2018-07-31T07:44:24.549Z,7.87
2018-07-31T07:46:53.358Z,7.13
2018-07-31T07:49:22.193Z,8.30
2018-07-31T07:51:51.035Z,7.33
2018-07-31T07:54:19.848Z,7.07
2018-07-31T07:56:49.121Z,7.27
2018-07-31T07:59:17.944Z,7.33
2018-07-31T08:01:46.843Z,9.27
2018-07-31T08:04:15.694Z,7.80
2018-07-31T08:06:44.534Z,8.47
2018-07-31T08:09:13.338Z,8.73
2018-07-31T08:11:42.187Z,8.07
2018-07-31T08:14:10.909Z,10.40
2018-07-31T08:16:39.717Z,10.47
2018-07-31T08:19:08.566Z,9.30
2018-07-31T08:21:37.586Z,9.13
2018-07-31T08:24:06.421Z,9.93
2018-07-31T08:26:35.462Z,10.33
2018-07-31T08:29:04.395Z,9.40
2018-07-31T08:34:10.171Z,9.27
2018-07-31T08:36:39.008Z,9.43
2018-07-31T08:39:09.469Z,8.90
2018-07-31T08:41:38.370Z,8.43
2018-07-31T08:44:07.418Z,8.73
2018-07-31T08:46:36.412Z,8.80
2018-07-31T08:49:05.252Z,8.23
2018-07-31T08:51:34.019Z,8.13
2018-07-31T08:54:02.803Z,8.40
2018-07-31T08:56:31.718Z,9.00
2018-07-31T08:59:00.510Z,8.10
2018-07-31T09:01:29.259Z,7.50
2018-07-31T09:03:58.087Z,8.53
2018-07-31T09:06:27.023Z,7.93
2018-07-31T09:08:55.908Z,9.83
2018-07-31T09:11:24.898Z,8.27
2018-07-31T09:13:53.678Z,8.70
2018-07-31T09:16:22.573Z,8.33
2018-07-31T09:18:51.394Z,8.33
2018-07-31T09:21:20.208Z,8.30
2018-07-31T09:23:48.985Z,7.80
2018-07-31T09:26:17.739Z,7.03
2018-07-31T09:28:46.603Z,8.03
2018-07-31T09:31:15.514Z,7.87
2018-07-31T09:33:44.501Z,7.37
2018-07-31T09:36:13.283Z,8.53
2018-07-31T09:38:42.081Z,8.70
2018-07-31T09:41:10.883Z,8.97
2018-07-31T09:43:39.708Z,8.37
2018-07-31T09:46:08.529Z,8.53
2018-07-31T09:48:37.767Z,8.23
2018-07-31T09:51:06.902Z,7.97
2018-07-31T09:53:35.689Z,7.90
2018-07-31T09:56:04.509Z,8.20
2018-07-31T09:58:33.274Z,7.67
2018-07-31T10:01:07.442Z,8.10
2018-07-31T10:03:36.243Z,7.77
2018-07-31T10:06:05.408Z,7.70
2018-07-31T10:08:34.205Z,8.50
2018-07-31T10:11:03.059Z,7.10
2018-07-31T10:13:32.262Z,7.90
2018-07-31T10:16:01.028Z,8.20
2018-07-31T10:18:29.835Z,8.83
2018-07-31T10:20:58.590Z,8.43
2018-07-31T10:23:27.363Z,8.93
2018-07-31T10:25:56.545Z,8.20
2018-07-31T10:28:25.298Z,11.17
2018-07-31T10:30:54.263Z,8.40
2018-07-31T10:33:23.571Z,8.00
2018-07-31T10:35:52.366Z,8.40
2018-07-31T10:38:21.176Z,8.80
2018-07-31T10:40:49.968Z,8.47
2018-07-31T10:43:18.758Z,8.27
2018-07-31T10:45:47.609Z,9.10
2018-07-31T10:48:16.690Z,9.47
2018-07-31T10:50:45.500Z,9.80
2018-07-31T10:53:14.437Z,9.87
2018-07-31T10:55:43.545Z,8.90
2018-07-31T10:58:12.408Z,8.10
2018-07-31T11:00:41.333Z,8.10
2018-07-31T11:03:10.250Z,8.67
2018-07-31T11:05:39.659Z,8.73
2018-07-31T11:08:08.469Z,9.20
2018-07-31T11:10:37.376Z,9.50
2018-07-31T11:13:06.261Z,8.93
2018-07-31T11:15:35.661Z,7.93
2018-07-31T11:18:04.469Z,8.10
2018-07-31T11:20:33.209Z,8.50
2018-07-31T11:23:02.163Z,9.40
2018-07-31T11:25:31.053Z,8.13
2018-07-31T11:28:00.286Z,7.30
2018-07-31T11:30:29.149Z,7.13
2018-07-31T11:32:57.958Z,7.13
2018-07-31T11:35:27.058Z,7.63
2018-07-31T11:37:55.850Z,7.03
2018-07-31T11:40:24.595Z,6.83
2018-07-31T11:42:53.433Z,7.70
2018-07-31T11:45:22.253Z,8.17
2018-07-31T11:47:51.068Z,9.17
2018-07-31T11:50:19.906Z,8.43
2018-07-31T11:52:48.721Z,7.87
2018-07-31T11:55:17.880Z,7.43
2018-07-31T11:57:46.677Z,7.30
2018-07-31T12:00:15.969Z,8.20
2018-07-31T12:02:45.683Z,7.60
2018-07-31T12:05:15.202Z,7.00
2018-07-31T12:07:44.077Z,7.47
2018-07-31T12:10:12.890Z,7.53
2018-07-31T12:12:43.698Z,7.73
2018-07-31T12:15:12.507Z,7.00
2018-07-31T12:17:41.317Z,6.87
2018-07-31T12:20:10.118Z,7.47
2018-07-31T12:22:38.897Z,7.37
2018-07-31T12:25:07.697Z,7.80
2018-07-31T12:27:36.514Z,7.43
2018-07-31T12:30:09.478Z,7.67
2018-07-31T12:32:38.509Z,7.40
2018-07-31T12:35:07.506Z,7.60
2018-07-31T12:37:36.303Z,7.37
2018-07-31T12:40:06.069Z,8.07
2018-07-31T12:42:41.418Z,8.20
2018-07-31T12:45:10.201Z,7.37
2018-07-31T12:47:38.988Z,7.20
2018-07-31T12:50:07.895Z,7.53
2018-07-31T12:52:36.841Z,7.33
2018-07-31T12:55:05.674Z,8.33
2018-07-31T12:57:34.474Z,8.07
2018-07-31T13:00:04.903Z,7.37
2018-07-31T13:02:34.019Z,7.10
2018-07-31T13:05:02.778Z,6.90
2018-07-31T13:07:31.602Z,8.00
2018-07-31T13:10:00.374Z,6.93
2018-07-31T13:12:29.109Z,7.50
2018-07-31T13:14:58.213Z,8.77
2018-07-31T13:17:27.049Z,8.20
2018-07-31T13:19:55.778Z,8.77
2018-07-31T13:22:24.602Z,8.70
2018-07-31T13:24:53.781Z,8.93
2018-07-31T13:27:22.561Z,8.80
2018-07-31T13:29:51.321Z,8.47
2018-07-31T13:32:20.135Z,8.47
2018-07-31T13:34:48.942Z,9.67
2018-07-31T13:37:17.798Z,8.10
2018-07-31T13:39:46.816Z,8.73
2018-07-31T13:42:15.649Z,9.10
2018-07-31T13:44:44.474Z,8.50
2018-07-31T13:47:13.267Z,7.70
2018-07-31T13:49:42.087Z,10.73
2018-07-31T13:52:10.927Z,11.97
2018-07-31T13:54:39.749Z,10.57
2018-07-31T13:57:08.951Z,8.63
2018-07-31T13:59:38.427Z,9.20
2018-07-31T14:02:09.523Z,8.10
2018-07-31T14:04:38.820Z,7.43
2018-07-31T14:07:07.746Z,8.90
2018-07-31T14:09:36.700Z,6.47
2018-07-31T14:12:05.466Z,6.13
2018-07-31T14:14:34.266Z,6.27
2018-07-31T14:17:03.419Z,5.50
2018-07-31T14:19:32.257Z,5.53
2018-07-31T14:22:01.177Z,6.73
2018-07-31T14:24:30.478Z,6.63
2018-07-31T14:26:59.401Z,6.50
2018-07-31T14:29:28.226Z,6.07
2018-07-31T14:31:57.307Z,5.93
2018-07-31T14:34:26.253Z,6.40
2018-07-31T14:36:55.517Z,5.50
2018-07-31T14:39:24.336Z,5.93
2018-07-31T14:41:55.950Z,5.77
2018-07-31T14:44:31.477Z,5.57
2018-07-31T14:47:00.298Z,4.97
2018-07-31T14:49:35.722Z,5.23
2018-07-31T14:52:04.509Z,5.30
2018-07-31T14:54:33.783Z,4.70
2018-07-31T14:57:02.599Z,5.43
2018-07-31T14:59:31.422Z,5.77
2018-07-31T15:02:00.446Z,5.43
2018-07-31T15:04:29.377Z,5.97
2018-07-31T15:06:59.280Z,6.90
2018-07-31T15:09:28.137Z,7.80
2018-07-31T15:11:57.011Z,9.43
2018-07-31T15:14:25.832Z,12.67
2018-07-31T15:16:54.634Z,8.23
2018-07-31T15:19:23.533Z,6.77
2018-07-31T15:21:52.717Z,7.43
2018-07-31T15:24:21.511Z,8.13
2018-07-31T15:26:50.409Z,7.87
2018-07-31T15:29:19.163Z,8.90
2018-07-31T15:31:48.005Z,8.10
2018-07-31T15:34:16.837Z,8.20
2018-07-31T15:36:45.609Z,7.03
2018-07-31T15:39:14.629Z,6.63
2018-07-31T15:41:44.063Z,6.90
2018-07-31T15:44:12.888Z,6.97
2018-07-31T15:46:42.772Z,5.80
2018-07-31T15:49:11.946Z,5.93
2018-07-31T15:54:26.869Z,6.47
2018-07-31T15:56:56.998Z,6.47
2018-07-31T15:59:25.883Z,7.20
2018-07-31T16:01:54.686Z,6.80
2018-07-31T16:04:26.820Z,10.20
2018-07-31T16:06:56.409Z,8.13
2018-07-31T16:09:25.200Z,6.83
2018-07-31T16:11:54.121Z,8.50
2018-07-31T16:14:22.895Z,6.70
2018-07-31T16:16:51.698Z,6.30
2018-07-31T16:19:20.556Z,6.53
2018-07-31T16:21:49.362Z,6.10
2018-07-31T16:24:18.150Z,5.97
2018-07-31T16:26:46.949Z,5.60
2018-07-31T16:29:17.668Z,5.93
2018-07-31T16:31:46.535Z,6.47
2018-07-31T16:34:15.779Z,7.50
2018-07-31T16:36:44.657Z,6.97
2018-07-31T16:39:13.434Z,6.23
2018-07-31T16:41:42.679Z,6.90
2018-07-31T16:44:11.678Z,6.50
2018-07-31T16:46:41.485Z,8.80
2018-07-31T16:49:10.290Z,9.10
2018-07-31T16:51:40.268Z,11.90
2018-07-31T16:54:09.158Z,11.17
2018-07-31T16:56:37.977Z,9.07
2018-07-31T16:59:06.938Z,8.20
2018-07-31T17:01:35.761Z,8.53
2018-07-31T17:04:04.625Z,8.57
2018-07-31T17:06:33.397Z,8.97
2018-07-31T17:09:04.528Z,15.93
2018-07-31T17:11:33.615Z,12.77
2018-07-31T17:14:02.464Z,10.73
2018-07-31T17:16:31.307Z,10.50
2018-07-31T17:19:00.084Z,10.17
2018-07-31T17:21:28.885Z,10.70
2018-07-31T17:23:57.925Z,10.37
2018-07-31T17:26:26.866Z,10.20
2018-07-31T17:28:55.738Z,11.27
2018-07-31T17:31:24.550Z,10.77
2018-07-31T17:33:53.696Z,11.93
2018-07-31T17:36:22.556Z,12.67
2018-07-31T17:38:51.438Z,11.57
2018-07-31T17:41:20.658Z,9.73
2018-07-31T17:43:49.495Z,11.53
2018-07-31T17:46:18.400Z,11.77
2018-07-31T17:48:47.605Z,10.33
2018-07-31T17:51:16.453Z,10.57
2018-07-31T17:53:46.014Z,8.80
2018-07-31T17:56:15.216Z,9.33
2018-07-31T17:58:44.498Z,9.47
2018-07-31T18:01:13.375Z,10.43
2018-07-31T18:03:42.306Z,12.10
2018-07-31T18:06:11.341Z,12.87
2018-07-31T18:08:40.201Z,8.60
2018-07-31T18:11:08.966Z,9.40
2018-07-31T18:13:37.746Z,10.77
2018-07-31T18:16:06.760Z,9.00
2018-07-31T18:18:35.706Z,8.47
2018-07-31T18:21:04.527Z,9.07
2018-07-31T18:23:33.478Z,8.97
2018-07-31T18:26:02.446Z,8.67
2018-07-31T18:28:31.292Z,8.57
2018-07-31T18:31:00.151Z,8.23
2018-07-31T18:33:28.981Z,8.33
2018-07-31T18:35:57.814Z,9.70
2018-07-31T18:38:26.619Z,9.20
2018-07-31T18:40:55.451Z,11.13
2018-07-31T18:43:24.418Z,10.80
2018-07-31T18:45:53.222Z,9.97
2018-07-31T18:48:28.446Z,8.93
2018-07-31T18:50:57.251Z,8.37
2018-07-31T18:53:26.490Z,10.33
2018-07-31T18:55:55.398Z,15.83
2018-07-31T18:58:24.543Z,11.53
2018-07-31T19:00:53.916Z,13.27
2018-07-31T19:03:23.006Z,12.10
2018-07-31T19:05:51.841Z,11.27
2018-07-31T19:08:20.644Z,17.17
2018-07-31T19:10:49.441Z,18.40
2018-07-31T19:13:18.331Z,12.80
2018-07-31T19:15:47.377Z,14.27
2018-07-31T19:18:16.264Z,12.53
2018-07-31T19:20:45.083Z,12.63
2018-07-31T19:23:13.950Z,11.77
2018-07-31T19:25:42.896Z,13.80
2018-07-31T19:28:11.892Z,13.83
2018-07-31T19:30:40.850Z,12.33
2018-07-31T19:33:09.753Z,13.07
2018-07-31T19:35:38.980Z,10.27
2018-07-31T19:38:08.012Z,13.90
2018-07-31T19:40:36.924Z,11.77
2018-07-31T19:43:07.636Z,15.30
2018-07-31T19:45:36.481Z,13.57
2018-07-31T19:48:05.377Z,21.90
2018-07-31T19:50:34.399Z,18.53
2018-07-31T19:53:03.201Z,13.73
2018-07-31T19:55:32.023Z,24.33
2018-07-31T19:58:00.815Z,19.13
2018-07-31T20:00:29.717Z,16.60
2018-07-31T20:02:58.522Z,17.03
2018-07-31T20:05:27.365Z,19.03
2018-07-31T20:07:56.226Z,18.50
2018-07-31T20:10:25.019Z,17.83
2018-07-31T20:12:54.085Z,25.47
2018-07-31T20:15:22.991Z,18.90
2018-07-31T20:17:50.828Z,14.10
2018-07-31T20:20:19.738Z,10.50
2018-07-31T20:22:48.522Z,9.73
2018-07-31T20:25:17.341Z,9.53
2018-07-31T20:27:46.134Z,9.53
2018-07-31T20:30:14.917Z,10.23
2018-07-31T20:32:44.139Z,9.73
2018-07-31T20:35:12.923Z,9.03
2018-07-31T20:37:41.721Z,8.67
2018-07-31T20:40:10.580Z,9.53
2018-07-31T20:42:39.408Z,8.37
2018-07-31T20:45:08.747Z,8.90
2018-07-31T20:47:37.898Z,8.90
2018-07-31T20:50:07.107Z,9.37
2018-07-31T20:52:42.307Z,8.60
2018-07-31T20:55:11.158Z,11.57
2018-07-31T20:57:39.973Z,11.20
2018-07-31T21:00:09.311Z,11.33
2018-07-31T21:02:38.150Z,10.97
2018-07-31T21:05:07.459Z,9.97
2018-07-31T21:07:36.348Z,10.60
2018-07-31T21:10:05.326Z,11.13
2018-07-31T21:12:34.114Z,10.77
2018-07-31T21:15:03.001Z,11.50
2018-07-31T21:17:31.786Z,11.47
2018-07-31T21:20:00.635Z,10.17
2018-07-31T21:22:29.559Z,11.73
2018-07-31T21:24:58.327Z,13.47
2018-07-31T21:27:27.098Z,10.93
2018-07-31T21:29:55.847Z,11.60
2018-07-31T21:32:24.673Z,11.47
2018-07-31T21:34:53.495Z,10.30
2018-07-31T21:37:22.288Z,10.00
2018-07-31T21:39:51.059Z,10.30
2018-07-31T21:42:19.927Z,10.20
2018-07-31T21:44:49.031Z,11.07
2018-07-31T21:47:17.806Z,11.27
2018-07-31T21:49:46.700Z,11.40
2018-07-31T21:52:15.559Z,11.30
2018-07-31T21:54:44.464Z,13.27
2018-07-31T21:57:13.278Z,11.20
2018-07-31T21:59:42.101Z,12.97
2018-07-31T22:02:11.078Z,10.50
2018-07-31T22:04:39.927Z,10.17
2018-07-31T22:07:09.130Z,11.03
2018-07-31T22:09:43.647Z,10.17
2018-07-31T22:12:12.646Z,11.37
2018-07-31T22:14:42.419Z,12.40
2018-07-31T22:17:11.226Z,11.87
2018-07-31T22:19:41.010Z,12.77
2018-07-31T22:22:09.842Z,11.63
2018-07-31T22:24:38.710Z,11.93
2018-07-31T22:27:07.607Z,11.40
2018-07-31T22:29:36.362Z,12.47
2018-07-31T22:32:05.219Z,12.30
2018-07-31T22:34:33.982Z,12.07
2018-07-31T22:37:02.776Z,12.40
2018-07-31T22:39:31.566Z,12.60
2018-07-31T22:42:00.349Z,11.37
2018-07-31T22:44:29.112Z,11.47
2018-07-31T22:46:57.963Z,11.13
2018-07-31T22:49:26.760Z,10.90
2018-07-31T22:51:55.554Z,10.37
2018-07-31T22:54:24.318Z,9.60
2018-07-31T22:56:53.095Z,10.77
2018-07-31T22:59:21.874Z,9.90
2018-07-31T23:01:50.734Z,10.63
2018-07-31T23:04:19.491Z,9.93
2018-07-31T23:06:48.330Z,9.40
2018-07-31T23:09:17.152Z,9.07
2018-07-31T23:11:46.293Z,8.60
2018-07-31T23:14:15.106Z,9.60
2018-07-31T23:16:44.099Z,9.37
2018-07-31T23:19:12.887Z,10.10
2018-07-31T23:21:41.663Z,9.70
2018-07-31T23:24:10.463Z,10.57
2018-07-31T23:26:39.237Z,9.43
2018-07-31T23:29:08.063Z,10.80
2018-07-31T23:31:36.920Z,9.90
2018-07-31T23:34:05.753Z,9.60
2018-07-31T23:36:34.552Z,10.03
2018-07-31T23:39:04.778Z,10.20
2018-07-31T23:41:33.557Z,10.30
2018-07-31T23:44:02.347Z,10.70
2018-07-31T23:46:31.162Z,10.13
2018-07-31T23:48:59.944Z,10.60
2018-07-31T23:51:28.729Z,9.93
2018-07-31T23:53:57.531Z,10.93
2018-07-31T23:56:26.380Z,10.10
2018-07-31T23:58:55.146Z,9.40
